<?xml version="1.0" encoding="UTF-8" standalone="no" ?>
<gpx xmlns="http://www.topografix.com/GPX/1/1" xmlns:xsi="http://www.w3.org/2001/XMLSchema-instance" xsi:schemaLocation="http://www.topografix.com/GPX/1/1 http://www.topografix.com/GPX/1/1/gpx.xsd" version="1.1" creator="VisuGPX - https://www.visugpx.com">
  <metadata>
    <name>VTT Sud Bourgogne</name>
    <desc><![CDATA[Cluny - Tournus : circuits VTT XC]]></desc>
  </metadata>
  <trk>
    <name><![CDATA[14 - Tout le Maconnais - Bleu]]></name>
    <extensions>
      <line xmlns="http://www.topografix.com/GPX/gpx_style/0/2">
        <color>0000FF</color>
        <width>4</width>
      </line>
    </extensions>
    <trkseg>
      <trkpt lat="46.47158" lon="4.80829">
        <ele>231</ele>
        <time>2020-09-22T10:05:37Z</time>
      </trkpt>
      <trkpt lat="46.47226" lon="4.80795">
        <ele>231</ele>
        <time>2020-09-22T10:05:54Z</time>
      </trkpt>
      <trkpt lat="46.47245" lon="4.80896">
        <ele>228</ele>
        <time>2020-09-22T10:06:11Z</time>
      </trkpt>
      <trkpt lat="46.47232" lon="4.80904">
        <ele>228</ele>
        <time>2020-09-22T10:06:14Z</time>
      </trkpt>
      <trkpt lat="46.47212" lon="4.80911">
        <ele>228</ele>
        <time>2020-09-22T10:06:19Z</time>
      </trkpt>
      <trkpt lat="46.47194" lon="4.80933">
        <ele>227</ele>
        <time>2020-09-22T10:06:24Z</time>
      </trkpt>
      <trkpt lat="46.47181" lon="4.80944">
        <ele>227</ele>
        <time>2020-09-22T10:06:28Z</time>
      </trkpt>
      <trkpt lat="46.47191" lon="4.81005">
        <ele>226</ele>
        <time>2020-09-22T10:06:38Z</time>
      </trkpt>
      <trkpt lat="46.47204" lon="4.81357">
        <ele>223</ele>
        <time>2020-09-22T10:07:35Z</time>
      </trkpt>
      <trkpt lat="46.47205" lon="4.81403">
        <ele>223</ele>
        <time>2020-09-22T10:07:42Z</time>
      </trkpt>
      <trkpt lat="46.47197" lon="4.81646">
        <ele>223</ele>
        <time>2020-09-22T10:08:21Z</time>
      </trkpt>
      <trkpt lat="46.47207" lon="4.81645">
        <ele>222</ele>
        <time>2020-09-22T10:08:23Z</time>
      </trkpt>
      <trkpt lat="46.47215" lon="4.81641">
        <ele>222</ele>
        <time>2020-09-22T10:08:25Z</time>
      </trkpt>
      <trkpt lat="46.47326" lon="4.81514">
        <ele>218</ele>
        <time>2020-09-22T10:08:58Z</time>
      </trkpt>
      <trkpt lat="46.47334" lon="4.81503">
        <ele>218</ele>
        <time>2020-09-22T10:09:01Z</time>
      </trkpt>
      <trkpt lat="46.47338" lon="4.81486">
        <ele>218</ele>
        <time>2020-09-22T10:09:04Z</time>
      </trkpt>
      <trkpt lat="46.47343" lon="4.81493">
        <ele>219</ele>
        <time>2020-09-22T10:09:05Z</time>
      </trkpt>
      <trkpt lat="46.4735" lon="4.81517">
        <ele>219</ele>
        <time>2020-09-22T10:09:10Z</time>
      </trkpt>
      <trkpt lat="46.47394" lon="4.81798">
        <ele>227</ele>
        <time>2020-09-22T10:09:56Z</time>
      </trkpt>
      <trkpt lat="46.47419" lon="4.81765">
        <ele>227</ele>
        <time>2020-09-22T10:10:04Z</time>
      </trkpt>
      <trkpt lat="46.47436" lon="4.81732">
        <ele>226</ele>
        <time>2020-09-22T10:10:11Z</time>
      </trkpt>
      <trkpt lat="46.47442" lon="4.81691">
        <ele>223</ele>
        <time>2020-09-22T10:10:17Z</time>
      </trkpt>
      <trkpt lat="46.47442" lon="4.81606">
        <ele>220</ele>
        <time>2020-09-22T10:10:31Z</time>
      </trkpt>
      <trkpt lat="46.47634" lon="4.81587">
        <ele>222</ele>
        <time>2020-09-22T10:11:16Z</time>
      </trkpt>
      <trkpt lat="46.47651" lon="4.81588">
        <ele>222</ele>
        <time>2020-09-22T10:11:20Z</time>
      </trkpt>
      <trkpt lat="46.47683" lon="4.816">
        <ele>223</ele>
        <time>2020-09-22T10:11:28Z</time>
      </trkpt>
      <trkpt lat="46.47692" lon="4.81601">
        <ele>223</ele>
        <time>2020-09-22T10:11:30Z</time>
      </trkpt>
      <trkpt lat="46.47752" lon="4.81589">
        <ele>223</ele>
        <time>2020-09-22T10:11:44Z</time>
      </trkpt>
      <trkpt lat="46.47844" lon="4.81566">
        <ele>224</ele>
        <time>2020-09-22T10:12:06Z</time>
      </trkpt>
      <trkpt lat="46.47878" lon="4.81564">
        <ele>225</ele>
        <time>2020-09-22T10:12:14Z</time>
      </trkpt>
      <trkpt lat="46.4791" lon="4.81568">
        <ele>226</ele>
        <time>2020-09-22T10:12:21Z</time>
      </trkpt>
      <trkpt lat="46.47931" lon="4.81574">
        <ele>226</ele>
        <time>2020-09-22T10:12:26Z</time>
      </trkpt>
      <trkpt lat="46.4794" lon="4.81565">
        <ele>226</ele>
        <time>2020-09-22T10:12:29Z</time>
      </trkpt>
      <trkpt lat="46.47958" lon="4.8147">
        <ele>226</ele>
        <time>2020-09-22T10:12:44Z</time>
      </trkpt>
      <trkpt lat="46.47949" lon="4.81459">
        <ele>226</ele>
        <time>2020-09-22T10:12:47Z</time>
      </trkpt>
      <trkpt lat="46.47924" lon="4.81413">
        <ele>226</ele>
        <time>2020-09-22T10:12:57Z</time>
      </trkpt>
      <trkpt lat="46.47904" lon="4.81359">
        <ele>228</ele>
        <time>2020-09-22T10:13:06Z</time>
      </trkpt>
      <trkpt lat="46.47937" lon="4.81338">
        <ele>229</ele>
        <time>2020-09-22T10:13:15Z</time>
      </trkpt>
      <trkpt lat="46.47948" lon="4.81336">
        <ele>229</ele>
        <time>2020-09-22T10:13:17Z</time>
      </trkpt>
      <trkpt lat="46.47968" lon="4.81338">
        <ele>228</ele>
        <time>2020-09-22T10:13:22Z</time>
      </trkpt>
      <trkpt lat="46.48" lon="4.81348">
        <ele>228</ele>
        <time>2020-09-22T10:13:30Z</time>
      </trkpt>
      <trkpt lat="46.48018" lon="4.81349">
        <ele>228</ele>
        <time>2020-09-22T10:13:34Z</time>
      </trkpt>
      <trkpt lat="46.48059" lon="4.81343">
        <ele>229</ele>
        <time>2020-09-22T10:13:44Z</time>
      </trkpt>
      <trkpt lat="46.48064" lon="4.81344">
        <ele>229</ele>
        <time>2020-09-22T10:13:45Z</time>
      </trkpt>
      <trkpt lat="46.48069" lon="4.81346">
        <ele>229</ele>
        <time>2020-09-22T10:13:46Z</time>
      </trkpt>
      <trkpt lat="46.48075" lon="4.81353">
        <ele>229</ele>
        <time>2020-09-22T10:13:48Z</time>
      </trkpt>
      <trkpt lat="46.48091" lon="4.81377">
        <ele>229</ele>
        <time>2020-09-22T10:13:53Z</time>
      </trkpt>
      <trkpt lat="46.48108" lon="4.81396">
        <ele>230</ele>
        <time>2020-09-22T10:13:58Z</time>
      </trkpt>
      <trkpt lat="46.4812" lon="4.81402">
        <ele>231</ele>
        <time>2020-09-22T10:14:01Z</time>
      </trkpt>
      <trkpt lat="46.48151" lon="4.81409">
        <ele>233</ele>
        <time>2020-09-22T10:14:09Z</time>
      </trkpt>
      <trkpt lat="46.48163" lon="4.81415">
        <ele>234</ele>
        <time>2020-09-22T10:14:11Z</time>
      </trkpt>
      <trkpt lat="46.48207" lon="4.81458">
        <ele>238</ele>
        <time>2020-09-22T10:14:24Z</time>
      </trkpt>
      <trkpt lat="46.48243" lon="4.81478">
        <ele>240</ele>
        <time>2020-09-22T10:14:33Z</time>
      </trkpt>
      <trkpt lat="46.4826" lon="4.81491">
        <ele>241</ele>
        <time>2020-09-22T10:14:37Z</time>
      </trkpt>
      <trkpt lat="46.48264" lon="4.81484">
        <ele>241</ele>
        <time>2020-09-22T10:14:39Z</time>
      </trkpt>
      <trkpt lat="46.48327" lon="4.81515">
        <ele>245</ele>
        <time>2020-09-22T10:14:54Z</time>
      </trkpt>
      <trkpt lat="46.48337" lon="4.81521">
        <ele>245</ele>
        <time>2020-09-22T10:14:57Z</time>
      </trkpt>
      <trkpt lat="46.48363" lon="4.81545">
        <ele>247</ele>
        <time>2020-09-22T10:15:04Z</time>
      </trkpt>
      <trkpt lat="46.48393" lon="4.81561">
        <ele>249</ele>
        <time>2020-09-22T10:15:12Z</time>
      </trkpt>
      <trkpt lat="46.48419" lon="4.81572">
        <ele>251</ele>
        <time>2020-09-22T10:15:18Z</time>
      </trkpt>
      <trkpt lat="46.48463" lon="4.8158">
        <ele>255</ele>
        <time>2020-09-22T10:15:28Z</time>
      </trkpt>
      <trkpt lat="46.48545" lon="4.81604">
        <ele>262</ele>
        <time>2020-09-22T10:15:48Z</time>
      </trkpt>
      <trkpt lat="46.48574" lon="4.81608">
        <ele>265</ele>
        <time>2020-09-22T10:15:55Z</time>
      </trkpt>
      <trkpt lat="46.48596" lon="4.81617">
        <ele>267</ele>
        <time>2020-09-22T10:16:00Z</time>
      </trkpt>
      <trkpt lat="46.48621" lon="4.81632">
        <ele>268</ele>
        <time>2020-09-22T10:16:06Z</time>
      </trkpt>
      <trkpt lat="46.48674" lon="4.81677">
        <ele>269</ele>
        <time>2020-09-22T10:16:21Z</time>
      </trkpt>
      <trkpt lat="46.48733" lon="4.81736">
        <ele>270</ele>
        <time>2020-09-22T10:16:37Z</time>
      </trkpt>
      <trkpt lat="46.48782" lon="4.81799">
        <ele>270</ele>
        <time>2020-09-22T10:16:53Z</time>
      </trkpt>
      <trkpt lat="46.48825" lon="4.81865">
        <ele>270</ele>
        <time>2020-09-22T10:17:07Z</time>
      </trkpt>
      <trkpt lat="46.48829" lon="4.81882">
        <ele>269</ele>
        <time>2020-09-22T10:17:10Z</time>
      </trkpt>
      <trkpt lat="46.4883" lon="4.81919">
        <ele>268</ele>
        <time>2020-09-22T10:17:16Z</time>
      </trkpt>
      <trkpt lat="46.4884" lon="4.81935">
        <ele>267</ele>
        <time>2020-09-22T10:17:19Z</time>
      </trkpt>
      <trkpt lat="46.48851" lon="4.81944">
        <ele>267</ele>
        <time>2020-09-22T10:17:22Z</time>
      </trkpt>
      <trkpt lat="46.4887" lon="4.81952">
        <ele>267</ele>
        <time>2020-09-22T10:17:27Z</time>
      </trkpt>
      <trkpt lat="46.48905" lon="4.81975">
        <ele>267</ele>
        <time>2020-09-22T10:17:36Z</time>
      </trkpt>
      <trkpt lat="46.48951" lon="4.82018">
        <ele>264</ele>
        <time>2020-09-22T10:17:49Z</time>
      </trkpt>
      <trkpt lat="46.49024" lon="4.82078">
        <ele>258</ele>
        <time>2020-09-22T10:18:08Z</time>
      </trkpt>
      <trkpt lat="46.49042" lon="4.82104">
        <ele>256</ele>
        <time>2020-09-22T10:18:14Z</time>
      </trkpt>
      <trkpt lat="46.49044" lon="4.82112">
        <ele>256</ele>
        <time>2020-09-22T10:18:16Z</time>
      </trkpt>
      <trkpt lat="46.49089" lon="4.82118">
        <ele>255</ele>
        <time>2020-09-22T10:18:26Z</time>
      </trkpt>
      <trkpt lat="46.49134" lon="4.82131">
        <ele>256</ele>
        <time>2020-09-22T10:18:37Z</time>
      </trkpt>
      <trkpt lat="46.49177" lon="4.82148">
        <ele>255</ele>
        <time>2020-09-22T10:18:47Z</time>
      </trkpt>
      <trkpt lat="46.4924" lon="4.82167">
        <ele>255</ele>
        <time>2020-09-22T10:19:02Z</time>
      </trkpt>
      <trkpt lat="46.49277" lon="4.82158">
        <ele>256</ele>
        <time>2020-09-22T10:19:11Z</time>
      </trkpt>
      <trkpt lat="46.4934" lon="4.82132">
        <ele>260</ele>
        <time>2020-09-22T10:19:26Z</time>
      </trkpt>
      <trkpt lat="46.49363" lon="4.82156">
        <ele>255</ele>
        <time>2020-09-22T10:19:33Z</time>
      </trkpt>
      <trkpt lat="46.49373" lon="4.82163">
        <ele>254</ele>
        <time>2020-09-22T10:19:36Z</time>
      </trkpt>
      <trkpt lat="46.49399" lon="4.82169">
        <ele>252</ele>
        <time>2020-09-22T10:19:42Z</time>
      </trkpt>
      <trkpt lat="46.49404" lon="4.82139">
        <ele>256</ele>
        <time>2020-09-22T10:19:47Z</time>
      </trkpt>
      <trkpt lat="46.49408" lon="4.82128">
        <ele>257</ele>
        <time>2020-09-22T10:19:49Z</time>
      </trkpt>
      <trkpt lat="46.49416" lon="4.82115">
        <ele>258</ele>
        <time>2020-09-22T10:19:52Z</time>
      </trkpt>
      <trkpt lat="46.49426" lon="4.82107">
        <ele>259</ele>
        <time>2020-09-22T10:19:54Z</time>
      </trkpt>
      <trkpt lat="46.49438" lon="4.82117">
        <ele>259</ele>
        <time>2020-09-22T10:19:57Z</time>
      </trkpt>
      <trkpt lat="46.49435" lon="4.82153">
        <ele>256</ele>
        <time>2020-09-22T10:20:03Z</time>
      </trkpt>
      <trkpt lat="46.4944" lon="4.82175">
        <ele>256</ele>
        <time>2020-09-22T10:20:07Z</time>
      </trkpt>
      <trkpt lat="46.49446" lon="4.82183">
        <ele>256</ele>
        <time>2020-09-22T10:20:09Z</time>
      </trkpt>
      <trkpt lat="46.49478" lon="4.82199">
        <ele>261</ele>
        <time>2020-09-22T10:20:17Z</time>
      </trkpt>
      <trkpt lat="46.49506" lon="4.82195">
        <ele>265</ele>
        <time>2020-09-22T10:20:23Z</time>
      </trkpt>
      <trkpt lat="46.49524" lon="4.82188">
        <ele>268</ele>
        <time>2020-09-22T10:20:28Z</time>
      </trkpt>
      <trkpt lat="46.49536" lon="4.82188">
        <ele>270</ele>
        <time>2020-09-22T10:20:31Z</time>
      </trkpt>
      <trkpt lat="46.49559" lon="4.82196">
        <ele>273</ele>
        <time>2020-09-22T10:20:36Z</time>
      </trkpt>
      <trkpt lat="46.49569" lon="4.82197">
        <ele>274</ele>
        <time>2020-09-22T10:20:38Z</time>
      </trkpt>
      <trkpt lat="46.49586" lon="4.82191">
        <ele>277</ele>
        <time>2020-09-22T10:20:42Z</time>
      </trkpt>
      <trkpt lat="46.49584" lon="4.82178">
        <ele>278</ele>
        <time>2020-09-22T10:20:45Z</time>
      </trkpt>
      <trkpt lat="46.49586" lon="4.82171">
        <ele>278</ele>
        <time>2020-09-22T10:20:46Z</time>
      </trkpt>
      <trkpt lat="46.49604" lon="4.82147">
        <ele>282</ele>
        <time>2020-09-22T10:20:52Z</time>
      </trkpt>
      <trkpt lat="46.49608" lon="4.82138">
        <ele>282</ele>
        <time>2020-09-22T10:20:53Z</time>
      </trkpt>
      <trkpt lat="46.49619" lon="4.82156">
        <ele>284</ele>
        <time>2020-09-22T10:20:57Z</time>
      </trkpt>
      <trkpt lat="46.4964" lon="4.8218">
        <ele>287</ele>
        <time>2020-09-22T10:21:03Z</time>
      </trkpt>
      <trkpt lat="46.49653" lon="4.82189">
        <ele>288</ele>
        <time>2020-09-22T10:21:07Z</time>
      </trkpt>
      <trkpt lat="46.49667" lon="4.82193">
        <ele>290</ele>
        <time>2020-09-22T10:21:10Z</time>
      </trkpt>
      <trkpt lat="46.49692" lon="4.82197">
        <ele>293</ele>
        <time>2020-09-22T10:21:16Z</time>
      </trkpt>
      <trkpt lat="46.49718" lon="4.82184">
        <ele>297</ele>
        <time>2020-09-22T10:21:22Z</time>
      </trkpt>
      <trkpt lat="46.49734" lon="4.82184">
        <ele>299</ele>
        <time>2020-09-22T10:21:26Z</time>
      </trkpt>
      <trkpt lat="46.49749" lon="4.82179">
        <ele>302</ele>
        <time>2020-09-22T10:21:30Z</time>
      </trkpt>
      <trkpt lat="46.49761" lon="4.82179">
        <ele>303</ele>
        <time>2020-09-22T10:21:32Z</time>
      </trkpt>
      <trkpt lat="46.49784" lon="4.82185">
        <ele>306</ele>
        <time>2020-09-22T10:21:38Z</time>
      </trkpt>
      <trkpt lat="46.49803" lon="4.82183">
        <ele>309</ele>
        <time>2020-09-22T10:21:42Z</time>
      </trkpt>
      <trkpt lat="46.49826" lon="4.82185">
        <ele>312</ele>
        <time>2020-09-22T10:21:48Z</time>
      </trkpt>
      <trkpt lat="46.49835" lon="4.82182">
        <ele>313</ele>
        <time>2020-09-22T10:21:50Z</time>
      </trkpt>
      <trkpt lat="46.49863" lon="4.82164">
        <ele>318</ele>
        <time>2020-09-22T10:21:57Z</time>
      </trkpt>
      <trkpt lat="46.49886" lon="4.82138">
        <ele>321</ele>
        <time>2020-09-22T10:22:04Z</time>
      </trkpt>
      <trkpt lat="46.4993" lon="4.82129">
        <ele>326</ele>
        <time>2020-09-22T10:22:14Z</time>
      </trkpt>
      <trkpt lat="46.49967" lon="4.82115">
        <ele>329</ele>
        <time>2020-09-22T10:22:23Z</time>
      </trkpt>
      <trkpt lat="46.49986" lon="4.82103">
        <ele>330</ele>
        <time>2020-09-22T10:22:28Z</time>
      </trkpt>
      <trkpt lat="46.50039" lon="4.82055">
        <ele>333</ele>
        <time>2020-09-22T10:22:43Z</time>
      </trkpt>
      <trkpt lat="46.50049" lon="4.82052">
        <ele>334</ele>
        <time>2020-09-22T10:22:45Z</time>
      </trkpt>
      <trkpt lat="46.50075" lon="4.82052">
        <ele>336</ele>
        <time>2020-09-22T10:22:51Z</time>
      </trkpt>
      <trkpt lat="46.50163" lon="4.8208">
        <ele>343</ele>
        <time>2020-09-22T10:23:12Z</time>
      </trkpt>
      <trkpt lat="46.50269" lon="4.82091">
        <ele>349</ele>
        <time>2020-09-22T10:23:37Z</time>
      </trkpt>
      <trkpt lat="46.50355" lon="4.82104">
        <ele>352</ele>
        <time>2020-09-22T10:23:57Z</time>
      </trkpt>
      <trkpt lat="46.50545" lon="4.82166">
        <ele>362</ele>
        <time>2020-09-22T10:24:43Z</time>
      </trkpt>
      <trkpt lat="46.50673" lon="4.82211">
        <ele>368</ele>
        <time>2020-09-22T10:25:13Z</time>
      </trkpt>
      <trkpt lat="46.50819" lon="4.8227">
        <ele>376</ele>
        <time>2020-09-22T10:25:49Z</time>
      </trkpt>
      <trkpt lat="46.50901" lon="4.82319">
        <ele>380</ele>
        <time>2020-09-22T10:26:09Z</time>
      </trkpt>
      <trkpt lat="46.50964" lon="4.82345">
        <ele>383</ele>
        <time>2020-09-22T10:26:25Z</time>
      </trkpt>
      <trkpt lat="46.50998" lon="4.82356">
        <ele>384</ele>
        <time>2020-09-22T10:26:33Z</time>
      </trkpt>
      <trkpt lat="46.51079" lon="4.82376">
        <ele>384</ele>
        <time>2020-09-22T10:26:52Z</time>
      </trkpt>
      <trkpt lat="46.51108" lon="4.82389">
        <ele>384</ele>
        <time>2020-09-22T10:26:59Z</time>
      </trkpt>
      <trkpt lat="46.51206" lon="4.82446">
        <ele>386</ele>
        <time>2020-09-22T10:27:24Z</time>
      </trkpt>
      <trkpt lat="46.51337" lon="4.82496">
        <ele>391</ele>
        <time>2020-09-22T10:27:55Z</time>
      </trkpt>
      <trkpt lat="46.51486" lon="4.82579">
        <ele>392</ele>
        <time>2020-09-22T10:28:33Z</time>
      </trkpt>
      <trkpt lat="46.51557" lon="4.82611">
        <ele>390</ele>
        <time>2020-09-22T10:28:50Z</time>
      </trkpt>
      <trkpt lat="46.51605" lon="4.82645">
        <ele>390</ele>
        <time>2020-09-22T10:29:03Z</time>
      </trkpt>
      <trkpt lat="46.51605" lon="4.8263">
        <ele>390</ele>
        <time>2020-09-22T10:29:05Z</time>
      </trkpt>
      <trkpt lat="46.51592" lon="4.82539">
        <ele>389</ele>
        <time>2020-09-22T10:29:20Z</time>
      </trkpt>
      <trkpt lat="46.51589" lon="4.82486">
        <ele>389</ele>
        <time>2020-09-22T10:29:28Z</time>
      </trkpt>
      <trkpt lat="46.51588" lon="4.8228">
        <ele>390</ele>
        <time>2020-09-22T10:30:02Z</time>
      </trkpt>
      <trkpt lat="46.51586" lon="4.82264">
        <ele>390</ele>
        <time>2020-09-22T10:30:04Z</time>
      </trkpt>
      <trkpt lat="46.51575" lon="4.82245">
        <ele>389</ele>
        <time>2020-09-22T10:30:08Z</time>
      </trkpt>
      <trkpt lat="46.51532" lon="4.82203">
        <ele>386</ele>
        <time>2020-09-22T10:30:20Z</time>
      </trkpt>
      <trkpt lat="46.51522" lon="4.82192">
        <ele>386</ele>
        <time>2020-09-22T10:30:23Z</time>
      </trkpt>
      <trkpt lat="46.5152" lon="4.82186">
        <ele>385</ele>
        <time>2020-09-22T10:30:24Z</time>
      </trkpt>
      <trkpt lat="46.51524" lon="4.82179">
        <ele>384</ele>
        <time>2020-09-22T10:30:26Z</time>
      </trkpt>
      <trkpt lat="46.51548" lon="4.82186">
        <ele>383</ele>
        <time>2020-09-22T10:30:31Z</time>
      </trkpt>
      <trkpt lat="46.51587" lon="4.82177">
        <ele>377</ele>
        <time>2020-09-22T10:30:41Z</time>
      </trkpt>
      <trkpt lat="46.51592" lon="4.82173">
        <ele>377</ele>
        <time>2020-09-22T10:30:42Z</time>
      </trkpt>
      <trkpt lat="46.51598" lon="4.82108">
        <ele>368</ele>
        <time>2020-09-22T10:30:53Z</time>
      </trkpt>
      <trkpt lat="46.5159" lon="4.8208">
        <ele>364</ele>
        <time>2020-09-22T10:30:57Z</time>
      </trkpt>
      <trkpt lat="46.51531" lon="4.81947">
        <ele>355</ele>
        <time>2020-09-22T10:31:23Z</time>
      </trkpt>
      <trkpt lat="46.51546" lon="4.81953">
        <ele>355</ele>
        <time>2020-09-22T10:31:26Z</time>
      </trkpt>
      <trkpt lat="46.51588" lon="4.81961">
        <ele>353</ele>
        <time>2020-09-22T10:31:36Z</time>
      </trkpt>
      <trkpt lat="46.51596" lon="4.8196">
        <ele>353</ele>
        <time>2020-09-22T10:31:38Z</time>
      </trkpt>
      <trkpt lat="46.51607" lon="4.81952">
        <ele>352</ele>
        <time>2020-09-22T10:31:41Z</time>
      </trkpt>
      <trkpt lat="46.51616" lon="4.8194">
        <ele>351</ele>
        <time>2020-09-22T10:31:44Z</time>
      </trkpt>
      <trkpt lat="46.51623" lon="4.8192">
        <ele>349</ele>
        <time>2020-09-22T10:31:48Z</time>
      </trkpt>
      <trkpt lat="46.5163" lon="4.81897">
        <ele>348</ele>
        <time>2020-09-22T10:31:52Z</time>
      </trkpt>
      <trkpt lat="46.51637" lon="4.81842">
        <ele>346</ele>
        <time>2020-09-22T10:32:01Z</time>
      </trkpt>
      <trkpt lat="46.51667" lon="4.8156">
        <ele>338</ele>
        <time>2020-09-22T10:32:46Z</time>
      </trkpt>
      <trkpt lat="46.51668" lon="4.8152">
        <ele>337</ele>
        <time>2020-09-22T10:32:53Z</time>
      </trkpt>
      <trkpt lat="46.51657" lon="4.81473">
        <ele>336</ele>
        <time>2020-09-22T10:33:01Z</time>
      </trkpt>
      <trkpt lat="46.51647" lon="4.81403">
        <ele>336</ele>
        <time>2020-09-22T10:33:12Z</time>
      </trkpt>
      <trkpt lat="46.51636" lon="4.81289">
        <ele>340</ele>
        <time>2020-09-22T10:33:31Z</time>
      </trkpt>
      <trkpt lat="46.51616" lon="4.81222">
        <ele>343</ele>
        <time>2020-09-22T10:33:43Z</time>
      </trkpt>
      <trkpt lat="46.51609" lon="4.81171">
        <ele>344</ele>
        <time>2020-09-22T10:33:51Z</time>
      </trkpt>
      <trkpt lat="46.5158" lon="4.81064">
        <ele>349</ele>
        <time>2020-09-22T10:34:09Z</time>
      </trkpt>
      <trkpt lat="46.51568" lon="4.81026">
        <ele>351</ele>
        <time>2020-09-22T10:34:16Z</time>
      </trkpt>
      <trkpt lat="46.51537" lon="4.80967">
        <ele>352</ele>
        <time>2020-09-22T10:34:28Z</time>
      </trkpt>
      <trkpt lat="46.51504" lon="4.80865">
        <ele>355</ele>
        <time>2020-09-22T10:34:46Z</time>
      </trkpt>
      <trkpt lat="46.51493" lon="4.80847">
        <ele>355</ele>
        <time>2020-09-22T10:34:50Z</time>
      </trkpt>
      <trkpt lat="46.51486" lon="4.80841">
        <ele>355</ele>
        <time>2020-09-22T10:34:52Z</time>
      </trkpt>
      <trkpt lat="46.51467" lon="4.80828">
        <ele>354</ele>
        <time>2020-09-22T10:34:57Z</time>
      </trkpt>
      <trkpt lat="46.51419" lon="4.80811">
        <ele>351</ele>
        <time>2020-09-22T10:35:08Z</time>
      </trkpt>
      <trkpt lat="46.51363" lon="4.8078">
        <ele>351</ele>
        <time>2020-09-22T10:35:22Z</time>
      </trkpt>
      <trkpt lat="46.51325" lon="4.80773">
        <ele>351</ele>
        <time>2020-09-22T10:35:31Z</time>
      </trkpt>
      <trkpt lat="46.51296" lon="4.80771">
        <ele>352</ele>
        <time>2020-09-22T10:35:38Z</time>
      </trkpt>
      <trkpt lat="46.51276" lon="4.8077">
        <ele>353</ele>
        <time>2020-09-22T10:35:43Z</time>
      </trkpt>
      <trkpt lat="46.51249" lon="4.80773">
        <ele>354</ele>
        <time>2020-09-22T10:35:49Z</time>
      </trkpt>
      <trkpt lat="46.51228" lon="4.8077">
        <ele>353</ele>
        <time>2020-09-22T10:35:54Z</time>
      </trkpt>
      <trkpt lat="46.51197" lon="4.80758">
        <ele>353</ele>
        <time>2020-09-22T10:36:02Z</time>
      </trkpt>
      <trkpt lat="46.51076" lon="4.80655">
        <ele>347</ele>
        <time>2020-09-22T10:36:34Z</time>
      </trkpt>
      <trkpt lat="46.5104" lon="4.80639">
        <ele>345</ele>
        <time>2020-09-22T10:36:43Z</time>
      </trkpt>
      <trkpt lat="46.5098" lon="4.80623">
        <ele>343</ele>
        <time>2020-09-22T10:36:57Z</time>
      </trkpt>
      <trkpt lat="46.50953" lon="4.80611">
        <ele>343</ele>
        <time>2020-09-22T10:37:04Z</time>
      </trkpt>
      <trkpt lat="46.50908" lon="4.80585">
        <ele>343</ele>
        <time>2020-09-22T10:37:15Z</time>
      </trkpt>
      <trkpt lat="46.50879" lon="4.80557">
        <ele>341</ele>
        <time>2020-09-22T10:37:23Z</time>
      </trkpt>
      <trkpt lat="46.50828" lon="4.80533">
        <ele>339</ele>
        <time>2020-09-22T10:37:36Z</time>
      </trkpt>
      <trkpt lat="46.5082" lon="4.80527">
        <ele>338</ele>
        <time>2020-09-22T10:37:38Z</time>
      </trkpt>
      <trkpt lat="46.50804" lon="4.80503">
        <ele>337</ele>
        <time>2020-09-22T10:37:43Z</time>
      </trkpt>
      <trkpt lat="46.50782" lon="4.80446">
        <ele>335</ele>
        <time>2020-09-22T10:37:54Z</time>
      </trkpt>
      <trkpt lat="46.50764" lon="4.80412">
        <ele>334</ele>
        <time>2020-09-22T10:38:01Z</time>
      </trkpt>
      <trkpt lat="46.50755" lon="4.804">
        <ele>334</ele>
        <time>2020-09-22T10:38:04Z</time>
      </trkpt>
      <trkpt lat="46.5068" lon="4.8033">
        <ele>333</ele>
        <time>2020-09-22T10:38:24Z</time>
      </trkpt>
      <trkpt lat="46.50662" lon="4.80302">
        <ele>333</ele>
        <time>2020-09-22T10:38:31Z</time>
      </trkpt>
      <trkpt lat="46.50649" lon="4.80269">
        <ele>332</ele>
        <time>2020-09-22T10:38:37Z</time>
      </trkpt>
      <trkpt lat="46.50629" lon="4.80182">
        <ele>331</ele>
        <time>2020-09-22T10:38:51Z</time>
      </trkpt>
      <trkpt lat="46.50606" lon="4.80137">
        <ele>330</ele>
        <time>2020-09-22T10:39:00Z</time>
      </trkpt>
      <trkpt lat="46.50598" lon="4.80109">
        <ele>329</ele>
        <time>2020-09-22T10:39:05Z</time>
      </trkpt>
      <trkpt lat="46.50594" lon="4.80084">
        <ele>329</ele>
        <time>2020-09-22T10:39:09Z</time>
      </trkpt>
      <trkpt lat="46.50606" lon="4.79992">
        <ele>316</ele>
        <time>2020-09-22T10:39:24Z</time>
      </trkpt>
      <trkpt lat="46.50609" lon="4.79945">
        <ele>312</ele>
        <time>2020-09-22T10:39:32Z</time>
      </trkpt>
      <trkpt lat="46.50609" lon="4.79904">
        <ele>308</ele>
        <time>2020-09-22T10:39:39Z</time>
      </trkpt>
      <trkpt lat="46.50599" lon="4.7986">
        <ele>305</ele>
        <time>2020-09-22T10:39:46Z</time>
      </trkpt>
      <trkpt lat="46.50597" lon="4.79843">
        <ele>303</ele>
        <time>2020-09-22T10:39:49Z</time>
      </trkpt>
      <trkpt lat="46.50598" lon="4.79825">
        <ele>302</ele>
        <time>2020-09-22T10:39:52Z</time>
      </trkpt>
      <trkpt lat="46.50606" lon="4.79793">
        <ele>300</ele>
        <time>2020-09-22T10:39:57Z</time>
      </trkpt>
      <trkpt lat="46.50619" lon="4.79756">
        <ele>298</ele>
        <time>2020-09-22T10:40:04Z</time>
      </trkpt>
      <trkpt lat="46.50611" lon="4.79756">
        <ele>299</ele>
        <time>2020-09-22T10:40:06Z</time>
      </trkpt>
      <trkpt lat="46.50542" lon="4.79728">
        <ele>302</ele>
        <time>2020-09-22T10:40:23Z</time>
      </trkpt>
      <trkpt lat="46.50546" lon="4.79692">
        <ele>301</ele>
        <time>2020-09-22T10:40:28Z</time>
      </trkpt>
      <trkpt lat="46.50545" lon="4.79654">
        <ele>301</ele>
        <time>2020-09-22T10:40:34Z</time>
      </trkpt>
      <trkpt lat="46.50531" lon="4.79643">
        <ele>302</ele>
        <time>2020-09-22T10:40:38Z</time>
      </trkpt>
      <trkpt lat="46.5053" lon="4.7961">
        <ele>302</ele>
        <time>2020-09-22T10:40:44Z</time>
      </trkpt>
      <trkpt lat="46.50523" lon="4.79542">
        <ele>302</ele>
        <time>2020-09-22T10:40:55Z</time>
      </trkpt>
      <trkpt lat="46.50514" lon="4.79504">
        <ele>302</ele>
        <time>2020-09-22T10:41:01Z</time>
      </trkpt>
      <trkpt lat="46.50509" lon="4.79461">
        <ele>300</ele>
        <time>2020-09-22T10:41:08Z</time>
      </trkpt>
      <trkpt lat="46.50503" lon="4.79386">
        <ele>301</ele>
        <time>2020-09-22T10:41:20Z</time>
      </trkpt>
      <trkpt lat="46.50507" lon="4.7938">
        <ele>301</ele>
        <time>2020-09-22T10:41:22Z</time>
      </trkpt>
      <trkpt lat="46.50517" lon="4.7938">
        <ele>300</ele>
        <time>2020-09-22T10:41:24Z</time>
      </trkpt>
      <trkpt lat="46.50515" lon="4.79386">
        <ele>300</ele>
        <time>2020-09-22T10:41:25Z</time>
      </trkpt>
      <trkpt lat="46.50516" lon="4.79407">
        <ele>299</ele>
        <time>2020-09-22T10:41:28Z</time>
      </trkpt>
      <trkpt lat="46.50518" lon="4.79417">
        <ele>298</ele>
        <time>2020-09-22T10:41:30Z</time>
      </trkpt>
      <trkpt lat="46.50523" lon="4.79426">
        <ele>298</ele>
        <time>2020-09-22T10:41:32Z</time>
      </trkpt>
      <trkpt lat="46.50549" lon="4.7945">
        <ele>297</ele>
        <time>2020-09-22T10:41:39Z</time>
      </trkpt>
      <trkpt lat="46.50571" lon="4.79459">
        <ele>296</ele>
        <time>2020-09-22T10:41:44Z</time>
      </trkpt>
      <trkpt lat="46.50613" lon="4.79452">
        <ele>296</ele>
        <time>2020-09-22T10:41:54Z</time>
      </trkpt>
      <trkpt lat="46.50606" lon="4.79368">
        <ele>298</ele>
        <time>2020-09-22T10:42:08Z</time>
      </trkpt>
      <trkpt lat="46.50595" lon="4.79303">
        <ele>300</ele>
        <time>2020-09-22T10:42:19Z</time>
      </trkpt>
      <trkpt lat="46.50577" lon="4.79223">
        <ele>300</ele>
        <time>2020-09-22T10:42:32Z</time>
      </trkpt>
      <trkpt lat="46.50568" lon="4.79164">
        <ele>299</ele>
        <time>2020-09-22T10:42:42Z</time>
      </trkpt>
      <trkpt lat="46.50565" lon="4.79126">
        <ele>296</ele>
        <time>2020-09-22T10:42:48Z</time>
      </trkpt>
      <trkpt lat="46.50562" lon="4.79115">
        <ele>295</ele>
        <time>2020-09-22T10:42:50Z</time>
      </trkpt>
      <trkpt lat="46.50548" lon="4.7909">
        <ele>292</ele>
        <time>2020-09-22T10:42:55Z</time>
      </trkpt>
      <trkpt lat="46.50537" lon="4.79063">
        <ele>295</ele>
        <time>2020-09-22T10:43:00Z</time>
      </trkpt>
      <trkpt lat="46.50534" lon="4.79046">
        <ele>297</ele>
        <time>2020-09-22T10:43:03Z</time>
      </trkpt>
      <trkpt lat="46.50536" lon="4.79013">
        <ele>303</ele>
        <time>2020-09-22T10:43:08Z</time>
      </trkpt>
      <trkpt lat="46.50493" lon="4.79046">
        <ele>299</ele>
        <time>2020-09-22T10:43:20Z</time>
      </trkpt>
      <trkpt lat="46.50411" lon="4.79079">
        <ele>296</ele>
        <time>2020-09-22T10:43:39Z</time>
      </trkpt>
      <trkpt lat="46.50286" lon="4.79213">
        <ele>289</ele>
        <time>2020-09-22T10:44:16Z</time>
      </trkpt>
      <trkpt lat="46.50249" lon="4.79225">
        <ele>287</ele>
        <time>2020-09-22T10:44:25Z</time>
      </trkpt>
      <trkpt lat="46.50214" lon="4.79187">
        <ele>292</ele>
        <time>2020-09-22T10:44:35Z</time>
      </trkpt>
      <trkpt lat="46.50173" lon="4.79231">
        <ele>285</ele>
        <time>2020-09-22T10:44:47Z</time>
      </trkpt>
      <trkpt lat="46.50164" lon="4.79235">
        <ele>285</ele>
        <time>2020-09-22T10:44:49Z</time>
      </trkpt>
      <trkpt lat="46.50155" lon="4.79236">
        <ele>284</ele>
        <time>2020-09-22T10:44:51Z</time>
      </trkpt>
      <trkpt lat="46.50123" lon="4.79228">
        <ele>282</ele>
        <time>2020-09-22T10:44:59Z</time>
      </trkpt>
      <trkpt lat="46.50042" lon="4.79215">
        <ele>277</ele>
        <time>2020-09-22T10:45:18Z</time>
      </trkpt>
      <trkpt lat="46.50019" lon="4.79192">
        <ele>277</ele>
        <time>2020-09-22T10:45:24Z</time>
      </trkpt>
      <trkpt lat="46.50006" lon="4.79173">
        <ele>278</ele>
        <time>2020-09-22T10:45:28Z</time>
      </trkpt>
      <trkpt lat="46.49994" lon="4.79168">
        <ele>277</ele>
        <time>2020-09-22T10:45:31Z</time>
      </trkpt>
      <trkpt lat="46.49985" lon="4.79161">
        <ele>277</ele>
        <time>2020-09-22T10:45:34Z</time>
      </trkpt>
      <trkpt lat="46.49939" lon="4.79118">
        <ele>279</ele>
        <time>2020-09-22T10:45:47Z</time>
      </trkpt>
      <trkpt lat="46.49938" lon="4.79099">
        <ele>282</ele>
        <time>2020-09-22T10:45:50Z</time>
      </trkpt>
      <trkpt lat="46.49921" lon="4.79083">
        <ele>282</ele>
        <time>2020-09-22T10:45:54Z</time>
      </trkpt>
      <trkpt lat="46.49906" lon="4.79073">
        <ele>284</ele>
        <time>2020-09-22T10:45:58Z</time>
      </trkpt>
      <trkpt lat="46.49849" lon="4.79011">
        <ele>292</ele>
        <time>2020-09-22T10:46:15Z</time>
      </trkpt>
      <trkpt lat="46.49826" lon="4.78979">
        <ele>297</ele>
        <time>2020-09-22T10:46:22Z</time>
      </trkpt>
      <trkpt lat="46.49813" lon="4.78956">
        <ele>300</ele>
        <time>2020-09-22T10:46:27Z</time>
      </trkpt>
      <trkpt lat="46.49715" lon="4.78881">
        <ele>308</ele>
        <time>2020-09-22T10:46:53Z</time>
      </trkpt>
      <trkpt lat="46.49668" lon="4.78839">
        <ele>312</ele>
        <time>2020-09-22T10:47:06Z</time>
      </trkpt>
      <trkpt lat="46.4964" lon="4.78825">
        <ele>313</ele>
        <time>2020-09-22T10:47:13Z</time>
      </trkpt>
      <trkpt lat="46.49628" lon="4.7881">
        <ele>315</ele>
        <time>2020-09-22T10:47:16Z</time>
      </trkpt>
      <trkpt lat="46.49581" lon="4.78783">
        <ele>317</ele>
        <time>2020-09-22T10:47:28Z</time>
      </trkpt>
      <trkpt lat="46.49519" lon="4.78738">
        <ele>321</ele>
        <time>2020-09-22T10:47:44Z</time>
      </trkpt>
      <trkpt lat="46.49476" lon="4.78691">
        <ele>328</ele>
        <time>2020-09-22T10:47:57Z</time>
      </trkpt>
      <trkpt lat="46.49469" lon="4.78689">
        <ele>328</ele>
        <time>2020-09-22T10:47:59Z</time>
      </trkpt>
      <trkpt lat="46.49436" lon="4.78664">
        <ele>330</ele>
        <time>2020-09-22T10:48:07Z</time>
      </trkpt>
      <trkpt lat="46.49421" lon="4.78662">
        <ele>330</ele>
        <time>2020-09-22T10:48:11Z</time>
      </trkpt>
      <trkpt lat="46.49408" lon="4.78666">
        <ele>329</ele>
        <time>2020-09-22T10:48:14Z</time>
      </trkpt>
      <trkpt lat="46.49378" lon="4.78659">
        <ele>329</ele>
        <time>2020-09-22T10:48:21Z</time>
      </trkpt>
      <trkpt lat="46.49339" lon="4.78639">
        <ele>331</ele>
        <time>2020-09-22T10:48:31Z</time>
      </trkpt>
      <trkpt lat="46.49307" lon="4.78626">
        <ele>332</ele>
        <time>2020-09-22T10:48:38Z</time>
      </trkpt>
      <trkpt lat="46.49292" lon="4.78624">
        <ele>331</ele>
        <time>2020-09-22T10:48:42Z</time>
      </trkpt>
      <trkpt lat="46.49272" lon="4.78613">
        <ele>331</ele>
        <time>2020-09-22T10:48:47Z</time>
      </trkpt>
      <trkpt lat="46.49247" lon="4.78599">
        <ele>331</ele>
        <time>2020-09-22T10:48:53Z</time>
      </trkpt>
      <trkpt lat="46.49225" lon="4.78578">
        <ele>332</ele>
        <time>2020-09-22T10:48:59Z</time>
      </trkpt>
      <trkpt lat="46.49112" lon="4.7851">
        <ele>331</ele>
        <time>2020-09-22T10:49:28Z</time>
      </trkpt>
      <trkpt lat="46.49101" lon="4.785">
        <ele>331</ele>
        <time>2020-09-22T10:49:31Z</time>
      </trkpt>
      <trkpt lat="46.49078" lon="4.78472">
        <ele>332</ele>
        <time>2020-09-22T10:49:38Z</time>
      </trkpt>
      <trkpt lat="46.49053" lon="4.78455">
        <ele>331</ele>
        <time>2020-09-22T10:49:44Z</time>
      </trkpt>
      <trkpt lat="46.49008" lon="4.78418">
        <ele>330</ele>
        <time>2020-09-22T10:49:57Z</time>
      </trkpt>
      <trkpt lat="46.48995" lon="4.7841">
        <ele>329</ele>
        <time>2020-09-22T10:50:00Z</time>
      </trkpt>
      <trkpt lat="46.48983" lon="4.78406">
        <ele>329</ele>
        <time>2020-09-22T10:50:03Z</time>
      </trkpt>
      <trkpt lat="46.48964" lon="4.78404">
        <ele>328</ele>
        <time>2020-09-22T10:50:07Z</time>
      </trkpt>
      <trkpt lat="46.48939" lon="4.78394">
        <ele>327</ele>
        <time>2020-09-22T10:50:13Z</time>
      </trkpt>
      <trkpt lat="46.489" lon="4.78374">
        <ele>327</ele>
        <time>2020-09-22T10:50:23Z</time>
      </trkpt>
      <trkpt lat="46.48886" lon="4.7837">
        <ele>327</ele>
        <time>2020-09-22T10:50:26Z</time>
      </trkpt>
      <trkpt lat="46.48863" lon="4.78368">
        <ele>327</ele>
        <time>2020-09-22T10:50:32Z</time>
      </trkpt>
      <trkpt lat="46.48839" lon="4.78374">
        <ele>325</ele>
        <time>2020-09-22T10:50:37Z</time>
      </trkpt>
      <trkpt lat="46.48796" lon="4.78429">
        <ele>318</ele>
        <time>2020-09-22T10:50:51Z</time>
      </trkpt>
      <trkpt lat="46.48777" lon="4.78446">
        <ele>316</ele>
        <time>2020-09-22T10:50:56Z</time>
      </trkpt>
      <trkpt lat="46.48758" lon="4.78457">
        <ele>315</ele>
        <time>2020-09-22T10:51:01Z</time>
      </trkpt>
      <trkpt lat="46.48711" lon="4.78507">
        <ele>310</ele>
        <time>2020-09-22T10:51:14Z</time>
      </trkpt>
      <trkpt lat="46.48664" lon="4.78544">
        <ele>308</ele>
        <time>2020-09-22T10:51:27Z</time>
      </trkpt>
      <trkpt lat="46.48608" lon="4.78581">
        <ele>306</ele>
        <time>2020-09-22T10:51:41Z</time>
      </trkpt>
      <trkpt lat="46.48584" lon="4.78608">
        <ele>306</ele>
        <time>2020-09-22T10:51:48Z</time>
      </trkpt>
      <trkpt lat="46.48569" lon="4.78612">
        <ele>305</ele>
        <time>2020-09-22T10:51:52Z</time>
      </trkpt>
      <trkpt lat="46.48506" lon="4.78576">
        <ele>302</ele>
        <time>2020-09-22T10:52:08Z</time>
      </trkpt>
      <trkpt lat="46.48445" lon="4.78531">
        <ele>297</ele>
        <time>2020-09-22T10:52:24Z</time>
      </trkpt>
      <trkpt lat="46.48432" lon="4.78526">
        <ele>295</ele>
        <time>2020-09-22T10:52:27Z</time>
      </trkpt>
      <trkpt lat="46.48376" lon="4.7849">
        <ele>292</ele>
        <time>2020-09-22T10:52:41Z</time>
      </trkpt>
      <trkpt lat="46.48315" lon="4.7846">
        <ele>289</ele>
        <time>2020-09-22T10:52:56Z</time>
      </trkpt>
      <trkpt lat="46.483" lon="4.7846">
        <ele>289</ele>
        <time>2020-09-22T10:52:59Z</time>
      </trkpt>
      <trkpt lat="46.48286" lon="4.78468">
        <ele>287</ele>
        <time>2020-09-22T10:53:03Z</time>
      </trkpt>
      <trkpt lat="46.48259" lon="4.78517">
        <ele>279</ele>
        <time>2020-09-22T10:53:13Z</time>
      </trkpt>
      <trkpt lat="46.48256" lon="4.78521">
        <ele>279</ele>
        <time>2020-09-22T10:53:14Z</time>
      </trkpt>
      <trkpt lat="46.48252" lon="4.78522">
        <ele>278</ele>
        <time>2020-09-22T10:53:15Z</time>
      </trkpt>
      <trkpt lat="46.48208" lon="4.78517">
        <ele>274</ele>
        <time>2020-09-22T10:53:25Z</time>
      </trkpt>
      <trkpt lat="46.48156" lon="4.78491">
        <ele>272</ele>
        <time>2020-09-22T10:53:38Z</time>
      </trkpt>
      <trkpt lat="46.48133" lon="4.78491">
        <ele>270</ele>
        <time>2020-09-22T10:53:44Z</time>
      </trkpt>
      <trkpt lat="46.48122" lon="4.78498">
        <ele>268</ele>
        <time>2020-09-22T10:53:46Z</time>
      </trkpt>
      <trkpt lat="46.4812" lon="4.78454">
        <ele>272</ele>
        <time>2020-09-22T10:53:53Z</time>
      </trkpt>
      <trkpt lat="46.48118" lon="4.7844">
        <ele>273</ele>
        <time>2020-09-22T10:53:56Z</time>
      </trkpt>
      <trkpt lat="46.48112" lon="4.78423">
        <ele>274</ele>
        <time>2020-09-22T10:53:59Z</time>
      </trkpt>
      <trkpt lat="46.48102" lon="4.78353">
        <ele>280</ele>
        <time>2020-09-22T10:54:10Z</time>
      </trkpt>
      <trkpt lat="46.48101" lon="4.78332">
        <ele>282</ele>
        <time>2020-09-22T10:54:14Z</time>
      </trkpt>
      <trkpt lat="46.48105" lon="4.7832">
        <ele>284</ele>
        <time>2020-09-22T10:54:16Z</time>
      </trkpt>
      <trkpt lat="46.48107" lon="4.78292">
        <ele>287</ele>
        <time>2020-09-22T10:54:20Z</time>
      </trkpt>
      <trkpt lat="46.48099" lon="4.7825">
        <ele>290</ele>
        <time>2020-09-22T10:54:27Z</time>
      </trkpt>
      <trkpt lat="46.4808" lon="4.78177">
        <ele>294</ele>
        <time>2020-09-22T10:54:40Z</time>
      </trkpt>
      <trkpt lat="46.48065" lon="4.78132">
        <ele>298</ele>
        <time>2020-09-22T10:54:48Z</time>
      </trkpt>
      <trkpt lat="46.48029" lon="4.78076">
        <ele>300</ele>
        <time>2020-09-22T10:55:00Z</time>
      </trkpt>
      <trkpt lat="46.48005" lon="4.78029">
        <ele>302</ele>
        <time>2020-09-22T10:55:10Z</time>
      </trkpt>
      <trkpt lat="46.47967" lon="4.77982">
        <ele>303</ele>
        <time>2020-09-22T10:55:21Z</time>
      </trkpt>
      <trkpt lat="46.47951" lon="4.77977">
        <ele>302</ele>
        <time>2020-09-22T10:55:25Z</time>
      </trkpt>
      <trkpt lat="46.47923" lon="4.77979">
        <ele>298</ele>
        <time>2020-09-22T10:55:32Z</time>
      </trkpt>
      <trkpt lat="46.47899" lon="4.77971">
        <ele>297</ele>
        <time>2020-09-22T10:55:37Z</time>
      </trkpt>
      <trkpt lat="46.47878" lon="4.7796">
        <ele>297</ele>
        <time>2020-09-22T10:55:43Z</time>
      </trkpt>
      <trkpt lat="46.47827" lon="4.77925">
        <ele>296</ele>
        <time>2020-09-22T10:55:56Z</time>
      </trkpt>
      <trkpt lat="46.4777" lon="4.77894">
        <ele>295</ele>
        <time>2020-09-22T10:56:10Z</time>
      </trkpt>
      <trkpt lat="46.4771" lon="4.77851">
        <ele>295</ele>
        <time>2020-09-22T10:56:26Z</time>
      </trkpt>
      <trkpt lat="46.47677" lon="4.77824">
        <ele>295</ele>
        <time>2020-09-22T10:56:35Z</time>
      </trkpt>
      <trkpt lat="46.47617" lon="4.77786">
        <ele>295</ele>
        <time>2020-09-22T10:56:50Z</time>
      </trkpt>
      <trkpt lat="46.47611" lon="4.77786">
        <ele>295</ele>
        <time>2020-09-22T10:56:51Z</time>
      </trkpt>
      <trkpt lat="46.47608" lon="4.77791">
        <ele>295</ele>
        <time>2020-09-22T10:56:52Z</time>
      </trkpt>
      <trkpt lat="46.4758" lon="4.77855">
        <ele>289</ele>
        <time>2020-09-22T10:57:04Z</time>
      </trkpt>
      <trkpt lat="46.47524" lon="4.78029">
        <ele>278</ele>
        <time>2020-09-22T10:57:35Z</time>
      </trkpt>
      <trkpt lat="46.47492" lon="4.78024">
        <ele>277</ele>
        <time>2020-09-22T10:57:43Z</time>
      </trkpt>
      <trkpt lat="46.47474" lon="4.78017">
        <ele>277</ele>
        <time>2020-09-22T10:57:47Z</time>
      </trkpt>
      <trkpt lat="46.47466" lon="4.78017">
        <ele>277</ele>
        <time>2020-09-22T10:57:49Z</time>
      </trkpt>
      <trkpt lat="46.47477" lon="4.78036">
        <ele>276</ele>
        <time>2020-09-22T10:57:53Z</time>
      </trkpt>
      <trkpt lat="46.4748" lon="4.78062">
        <ele>275</ele>
        <time>2020-09-22T10:57:57Z</time>
      </trkpt>
      <trkpt lat="46.47476" lon="4.78084">
        <ele>274</ele>
        <time>2020-09-22T10:58:01Z</time>
      </trkpt>
      <trkpt lat="46.47456" lon="4.78157">
        <ele>269</ele>
        <time>2020-09-22T10:58:14Z</time>
      </trkpt>
      <trkpt lat="46.47458" lon="4.78159">
        <ele>269</ele>
        <time>2020-09-22T10:58:14Z</time>
      </trkpt>
      <trkpt lat="46.47456" lon="4.78157">
        <ele>269</ele>
        <time>2020-09-22T10:58:15Z</time>
      </trkpt>
      <trkpt lat="46.47446" lon="4.78188">
        <ele>267</ele>
        <time>2020-09-22T10:58:20Z</time>
      </trkpt>
      <trkpt lat="46.47428" lon="4.7823">
        <ele>265</ele>
        <time>2020-09-22T10:58:28Z</time>
      </trkpt>
      <trkpt lat="46.4743" lon="4.78244">
        <ele>265</ele>
        <time>2020-09-22T10:58:31Z</time>
      </trkpt>
      <trkpt lat="46.47442" lon="4.78276">
        <ele>264</ele>
        <time>2020-09-22T10:58:36Z</time>
      </trkpt>
      <trkpt lat="46.47439" lon="4.78307">
        <ele>263</ele>
        <time>2020-09-22T10:58:41Z</time>
      </trkpt>
      <trkpt lat="46.47429" lon="4.78333">
        <ele>262</ele>
        <time>2020-09-22T10:58:46Z</time>
      </trkpt>
      <trkpt lat="46.47332" lon="4.78504">
        <ele>262</ele>
        <time>2020-09-22T10:59:22Z</time>
      </trkpt>
      <trkpt lat="46.47308" lon="4.78552">
        <ele>266</ele>
        <time>2020-09-22T10:59:31Z</time>
      </trkpt>
      <trkpt lat="46.47307" lon="4.7857">
        <ele>267</ele>
        <time>2020-09-22T10:59:34Z</time>
      </trkpt>
      <trkpt lat="46.4731" lon="4.78584">
        <ele>268</ele>
        <time>2020-09-22T10:59:37Z</time>
      </trkpt>
      <trkpt lat="46.47363" lon="4.78755">
        <ele>276</ele>
        <time>2020-09-22T11:00:07Z</time>
      </trkpt>
      <trkpt lat="46.47365" lon="4.78764">
        <ele>277</ele>
        <time>2020-09-22T11:00:08Z</time>
      </trkpt>
      <trkpt lat="46.47363" lon="4.78777">
        <ele>278</ele>
        <time>2020-09-22T11:00:10Z</time>
      </trkpt>
      <trkpt lat="46.47355" lon="4.78777">
        <ele>279</ele>
        <time>2020-09-22T11:00:12Z</time>
      </trkpt>
      <trkpt lat="46.47303" lon="4.78726">
        <ele>279</ele>
        <time>2020-09-22T11:00:27Z</time>
      </trkpt>
      <trkpt lat="46.47291" lon="4.78719">
        <ele>280</ele>
        <time>2020-09-22T11:00:30Z</time>
      </trkpt>
      <trkpt lat="46.47283" lon="4.78719">
        <ele>280</ele>
        <time>2020-09-22T11:00:32Z</time>
      </trkpt>
      <trkpt lat="46.47272" lon="4.78723">
        <ele>282</ele>
        <time>2020-09-22T11:00:35Z</time>
      </trkpt>
      <trkpt lat="46.47261" lon="4.78738">
        <ele>284</ele>
        <time>2020-09-22T11:00:38Z</time>
      </trkpt>
      <trkpt lat="46.47198" lon="4.78864">
        <ele>292</ele>
        <time>2020-09-22T11:01:03Z</time>
      </trkpt>
      <trkpt lat="46.47143" lon="4.78947">
        <ele>292</ele>
        <time>2020-09-22T11:01:22Z</time>
      </trkpt>
      <trkpt lat="46.47105" lon="4.78996">
        <ele>290</ele>
        <time>2020-09-22T11:01:33Z</time>
      </trkpt>
      <trkpt lat="46.47091" lon="4.79021">
        <ele>290</ele>
        <time>2020-09-22T11:01:39Z</time>
      </trkpt>
      <trkpt lat="46.47061" lon="4.79127">
        <ele>291</ele>
        <time>2020-09-22T11:01:57Z</time>
      </trkpt>
      <trkpt lat="46.47054" lon="4.7913">
        <ele>291</ele>
        <time>2020-09-22T11:01:59Z</time>
      </trkpt>
      <trkpt lat="46.46958" lon="4.79221">
        <ele>299</ele>
        <time>2020-09-22T11:02:26Z</time>
      </trkpt>
      <trkpt lat="46.46925" lon="4.79268">
        <ele>302</ele>
        <time>2020-09-22T11:02:36Z</time>
      </trkpt>
      <trkpt lat="46.4688" lon="4.79364">
        <ele>308</ele>
        <time>2020-09-22T11:02:55Z</time>
      </trkpt>
      <trkpt lat="46.46841" lon="4.7942">
        <ele>310</ele>
        <time>2020-09-22T11:03:08Z</time>
      </trkpt>
      <trkpt lat="46.46831" lon="4.79442">
        <ele>310</ele>
        <time>2020-09-22T11:03:12Z</time>
      </trkpt>
      <trkpt lat="46.46726" lon="4.79728">
        <ele>314</ele>
        <time>2020-09-22T11:04:04Z</time>
      </trkpt>
      <trkpt lat="46.46701" lon="4.79789">
        <ele>314</ele>
        <time>2020-09-22T11:04:16Z</time>
      </trkpt>
      <trkpt lat="46.46665" lon="4.79905">
        <ele>314</ele>
        <time>2020-09-22T11:04:36Z</time>
      </trkpt>
      <trkpt lat="46.46663" lon="4.79922">
        <ele>314</ele>
        <time>2020-09-22T11:04:39Z</time>
      </trkpt>
      <trkpt lat="46.4666" lon="4.80154">
        <ele>316</ele>
        <time>2020-09-22T11:05:16Z</time>
      </trkpt>
      <trkpt lat="46.46655" lon="4.80167">
        <ele>317</ele>
        <time>2020-09-22T11:05:19Z</time>
      </trkpt>
      <trkpt lat="46.4665" lon="4.80231">
        <ele>316</ele>
        <time>2020-09-22T11:05:29Z</time>
      </trkpt>
      <trkpt lat="46.46638" lon="4.80308">
        <ele>317</ele>
        <time>2020-09-22T11:05:42Z</time>
      </trkpt>
      <trkpt lat="46.46629" lon="4.80577">
        <ele>317</ele>
        <time>2020-09-22T11:06:25Z</time>
      </trkpt>
      <trkpt lat="46.46625" lon="4.80608">
        <ele>318</ele>
        <time>2020-09-22T11:06:30Z</time>
      </trkpt>
      <trkpt lat="46.46618" lon="4.80621">
        <ele>319</ele>
        <time>2020-09-22T11:06:33Z</time>
      </trkpt>
      <trkpt lat="46.46835" lon="4.80754">
        <ele>292</ele>
        <time>2020-09-22T11:07:28Z</time>
      </trkpt>
      <trkpt lat="46.46857" lon="4.80788">
        <ele>287</ele>
        <time>2020-09-22T11:07:35Z</time>
      </trkpt>
      <trkpt lat="46.46881" lon="4.80806">
        <ele>282</ele>
        <time>2020-09-22T11:07:42Z</time>
      </trkpt>
      <trkpt lat="46.46914" lon="4.80845">
        <ele>272</ele>
        <time>2020-09-22T11:07:51Z</time>
      </trkpt>
      <trkpt lat="46.46943" lon="4.80863">
        <ele>264</ele>
        <time>2020-09-22T11:07:59Z</time>
      </trkpt>
      <trkpt lat="46.46975" lon="4.80859">
        <ele>257</ele>
        <time>2020-09-22T11:08:06Z</time>
      </trkpt>
      <trkpt lat="46.4698" lon="4.80842">
        <ele>258</ele>
        <time>2020-09-22T11:08:09Z</time>
      </trkpt>
      <trkpt lat="46.4699" lon="4.80829">
        <ele>257</ele>
        <time>2020-09-22T11:08:12Z</time>
      </trkpt>
      <trkpt lat="46.47001" lon="4.8083">
        <ele>254</ele>
        <time>2020-09-22T11:08:15Z</time>
      </trkpt>
      <trkpt lat="46.47047" lon="4.80858">
        <ele>242</ele>
        <time>2020-09-22T11:08:27Z</time>
      </trkpt>
      <trkpt lat="46.47073" lon="4.80871">
        <ele>237</ele>
        <time>2020-09-22T11:08:33Z</time>
      </trkpt>
      <trkpt lat="46.47081" lon="4.80871">
        <ele>235</ele>
        <time>2020-09-22T11:08:35Z</time>
      </trkpt>
      <trkpt lat="46.47095" lon="4.80868">
        <ele>234</ele>
        <time>2020-09-22T11:08:38Z</time>
      </trkpt>
      <trkpt lat="46.47126" lon="4.80853">
        <ele>233</ele>
        <time>2020-09-22T11:08:46Z</time>
      </trkpt>
      <trkpt lat="46.47134" lon="4.80844">
        <ele>232</ele>
        <time>2020-09-22T11:08:48Z</time>
      </trkpt>
      <trkpt lat="46.47158" lon="4.80829">
        <ele>231</ele>
        <time>2020-09-22T11:08:54Z</time>
      </trkpt>
    </trkseg>
  </trk>
</gpx>